sensor_id;sensor_type;location;lat;lon;timestamp;temperature;humidity
59025;DHT22;44806;48.008;13.666;2023-01-05T00:02:24;11.10;99.90
59025;DHT22;44806;48.008;13.666;2023-01-05T00:05:03;11.00;99.90
59025;DHT22;44806;48.008;13.666;2023-01-05T00:07:35;10.90;99.90
59025;DHT22;44806;48.008;13.666;2023-01-05T00:10:10;10.80;99.90
59025;DHT22;44806;48.008;13.666;2023-01-05T00:13:03;10.70;99.90
59025;DHT22;44806;48.008;13.666;2023-01-05T00:15:51;10.60;99.90
59025;DHT22;44806;48.008;13.666;2023-01-05T00:18:39;10.60;99.90
59025;DHT22;44806;48.008;13.666;2023-01-05T00:21:24;10.50;99.90
59025;DHT22;44806;48.008;13.666;2023-01-05T00:24:13;10.40;99.90
59025;DHT22;44806;48.008;13.666;2023-01-05T00:26:42;10.30;99.90
59025;DHT22;44806;48.008;13.666;2023-01-05T00:29:11;10.30;99.90
59025;DHT22;44806;48.008;13.666;2023-01-05T00:31:42;10.30;99.90
59025;DHT22;44806;48.008;13.666;2023-01-05T00:34:15;10.20;99.90
59025;DHT22;44806;48.008;13.666;2023-01-05T00:36:51;10.20;99.90
59025;DHT22;44806;48.008;13.666;2023-01-05T00:39:26;10.20;99.90
59025;DHT22;44806;48.008;13.666;2023-01-05T00:42:03;10.20;99.90
59025;DHT22;44806;48.008;13.666;2023-01-05T00:44:34;10.20;99.90
59025;DHT22;44806;48.008;13.666;2023-01-05T00:47:03;10.10;99.90
59025;DHT22;44806;48.008;13.666;2023-01-05T00:49:34;10.20;99.90
59025;DHT22;44806;48.008;13.666;2023-01-05T00:52:07;10.20;99.90
59025;DHT22;44806;48.008;13.666;2023-01-05T00:54:42;10.20;99.90
59025;DHT22;44806;48.008;13.666;2023-01-05T00:57:16;10.30;99.90
59025;DHT22;44806;48.008;13.666;2023-01-05T00:59:48;10.30;99.90
59025;DHT22;44806;48.008;13.666;2023-01-05T01:02:17;10.30;99.90
59025;DHT22;44806;48.008;13.666;2023-01-05T01:04:58;10.30;99.90
59025;DHT22;44806;48.008;13.666;2023-01-05T01:07:32;10.40;99.90
59025;DHT22;44806;48.008;13.666;2023-01-05T01:10:08;10.40;99.90
59025;DHT22;44806;48.008;13.666;2023-01-05T01:12:43;10.40;99.90
59025;DHT22;44806;48.008;13.666;2023-01-05T01:15:19;10.40;99.90
59025;DHT22;44806;48.008;13.666;2023-01-05T01:17:49;10.40;99.90
59025;DHT22;44806;48.008;13.666;2023-01-05T01:20:22;10.50;99.90
59025;DHT22;44806;48.008;13.666;2023-01-05T01:22:55;10.40;99.90
59025;DHT22;44806;48.008;13.666;2023-01-05T01:25:29;10.50;99.90
59025;DHT22;44806;48.008;13.666;2023-01-05T01:28:04;10.50;99.90
59025;DHT22;44806;48.008;13.666;2023-01-05T01:30:37;10.50;99.90
59025;DHT22;44806;48.008;13.666;2023-01-05T01:33:09;10.50;99.90
59025;DHT22;44806;48.008;13.666;2023-01-05T01:35:41;10.60;99.90
59025;DHT22;44806;48.008;13.666;2023-01-05T01:38:14;10.60;99.90
59025;DHT22;44806;48.008;13.666;2023-01-05T01:40:47;10.60;99.90
59025;DHT22;44806;48.008;13.666;2023-01-05T01:43:17;10.60;99.90
59025;DHT22;44806;48.008;13.666;2023-01-05T01:45:47;10.60;99.90
59025;DHT22;44806;48.008;13.666;2023-01-05T01:48:19;10.60;99.90
59025;DHT22;44806;48.008;13.666;2023-01-05T01:50:52;10.60;99.90
59025;DHT22;44806;48.008;13.666;2023-01-05T01:53:26;10.60;99.90
59025;DHT22;44806;48.008;13.666;2023-01-05T01:56:03;10.60;99.90
59025;DHT22;44806;48.008;13.666;2023-01-05T01:58:32;10.60;99.90
59025;DHT22;44806;48.008;13.666;2023-01-05T02:01:01;10.60;99.90
59025;DHT22;44806;48.008;13.666;2023-01-05T02:03:32;10.60;99.90
59025;DHT22;44806;48.008;13.666;2023-01-05T02:06:01;10.60;99.90
59025;DHT22;44806;48.008;13.666;2023-01-05T02:08:29;10.60;99.90
59025;DHT22;44806;48.008;13.666;2023-01-05T02:11:08;10.60;99.90
59025;DHT22;44806;48.008;13.666;2023-01-05T02:13:59;10.60;99.90
59025;DHT22;44806;48.008;13.666;2023-01-05T02:16:46;10.70;99.90
59025;DHT22;44806;48.008;13.666;2023-01-05T02:19:44;10.70;99.90
59025;DHT22;44806;48.008;13.666;2023-01-05T02:22:48;10.70;99.90
59025;DHT22;44806;48.008;13.666;2023-01-05T02:25:54;10.80;99.90
59025;DHT22;44806;48.008;13.666;2023-01-05T02:28:48;10.80;99.90
59025;DHT22;44806;48.008;13.666;2023-01-05T02:31:30;10.90;99.90
59025;DHT22;44806;48.008;13.666;2023-01-05T02:34:26;10.90;99.90
59025;DHT22;44806;48.008;13.666;2023-01-05T02:37:07;11.00;99.90
59025;DHT22;44806;48.008;13.666;2023-01-05T02:39:49;11.00;99.90
59025;DHT22;44806;48.008;13.666;2023-01-05T02:42:33;11.00;99.90
59025;DHT22;44806;48.008;13.666;2023-01-05T02:45:11;11.00;99.90
59025;DHT22;44806;48.008;13.666;2023-01-05T02:47:48;11.10;99.90
59025;DHT22;44806;48.008;13.666;2023-01-05T02:50:19;11.10;99.90
59025;DHT22;44806;48.008;13.666;2023-01-05T02:52:57;11.10;99.90
59025;DHT22;44806;48.008;13.666;2023-01-05T02:55:36;11.10;99.90
59025;DHT22;44806;48.008;13.666;2023-01-05T02:58:18;11.10;99.90
59025;DHT22;44806;48.008;13.666;2023-01-05T03:00:49;11.00;99.90
59025;DHT22;44806;48.008;13.666;2023-01-05T03:03:24;11.10;99.90
59025;DHT22;44806;48.008;13.666;2023-01-05T03:05:55;11.10;99.90
59025;DHT22;44806;48.008;13.666;2023-01-05T03:08:33;11.10;99.90
59025;DHT22;44806;48.008;13.666;2023-01-05T03:11:15;11.10;99.90
59025;DHT22;44806;48.008;13.666;2023-01-05T03:14:06;11.20;99.90
59025;DHT22;44806;48.008;13.666;2023-01-05T03:16:38;11.20;99.90
59025;DHT22;44806;48.008;13.666;2023-01-05T03:19:20;11.30;99.90
59025;DHT22;44806;48.008;13.666;2023-01-05T03:22:12;11.30;99.90
59025;DHT22;44806;48.008;13.666;2023-01-05T03:25:03;11.30;99.90
59025;DHT22;44806;48.008;13.666;2023-01-05T03:27:49;11.30;99.90
59025;DHT22;44806;48.008;13.666;2023-01-05T03:30:40;11.30;99.90
59025;DHT22;44806;48.008;13.666;2023-01-05T03:33:36;11.20;99.90
59025;DHT22;44806;48.008;13.666;2023-01-05T03:36:35;11.20;99.90
59025;DHT22;44806;48.008;13.666;2023-01-05T03:39:14;11.20;99.90
59025;DHT22;44806;48.008;13.666;2023-01-05T03:41:46;11.20;99.90
59025;DHT22;44806;48.008;13.666;2023-01-05T03:44:14;11.20;99.90
59025;DHT22;44806;48.008;13.666;2023-01-05T03:46:45;11.30;99.90
59025;DHT22;44806;48.008;13.666;2023-01-05T03:49:18;11.30;99.90
59025;DHT22;44806;48.008;13.666;2023-01-05T03:51:55;11.30;99.90
59025;DHT22;44806;48.008;13.666;2023-01-05T03:54:28;11.40;99.90
59025;DHT22;44806;48.008;13.666;2023-01-05T03:57:02;11.40;99.90
59025;DHT22;44806;48.008;13.666;2023-01-05T03:59:33;11.40;99.90
59025;DHT22;44806;48.008;13.666;2023-01-05T04:02:13;11.40;99.90
59025;DHT22;44806;48.008;13.666;2023-01-05T04:04:48;11.50;99.90
59025;DHT22;44806;48.008;13.666;2023-01-05T04:07:23;11.50;99.90
59025;DHT22;44806;48.008;13.666;2023-01-05T04:09:54;11.50;99.90
59025;DHT22;44806;48.008;13.666;2023-01-05T04:12:29;11.50;99.90
59025;DHT22;44806;48.008;13.666;2023-01-05T04:14:59;11.50;99.90
59025;DHT22;44806;48.008;13.666;2023-01-05T04:17:30;11.60;99.90
59025;DHT22;44806;48.008;13.666;2023-01-05T04:20:04;11.60;99.90
59025;DHT22;44806;48.008;13.666;2023-01-05T04:22:34;11.60;99.90
59025;DHT22;44806;48.008;13.666;2023-01-05T04:25:09;11.60;99.90
59025;DHT22;44806;48.008;13.666;2023-01-05T04:27:45;11.60;99.90
59025;DHT22;44806;48.008;13.666;2023-01-05T04:30:14;11.70;99.90
59025;DHT22;44806;48.008;13.666;2023-01-05T04:32:42;11.60;99.90
59025;DHT22;44806;48.008;13.666;2023-01-05T04:35:16;11.50;99.90
59025;DHT22;44806;48.008;13.666;2023-01-05T04:37:45;11.50;99.90
59025;DHT22;44806;48.008;13.666;2023-01-05T04:40:24;11.30;99.90
59025;DHT22;44806;48.008;13.666;2023-01-05T04:42:55;11.20;99.90
59025;DHT22;44806;48.008;13.666;2023-01-05T04:45:24;11.20;99.90
59025;DHT22;44806;48.008;13.666;2023-01-05T04:47:55;11.10;99.90
59025;DHT22;44806;48.008;13.666;2023-01-05T04:50:30;11.00;99.90
59025;DHT22;44806;48.008;13.666;2023-01-05T04:53:11;11.00;99.90
59025;DHT22;44806;48.008;13.666;2023-01-05T04:55:47;10.90;99.90
59025;DHT22;44806;48.008;13.666;2023-01-05T04:58:25;10.90;99.90
59025;DHT22;44806;48.008;13.666;2023-01-05T05:01:04;10.80;99.90
59025;DHT22;44806;48.008;13.666;2023-01-05T05:03:33;10.80;99.90
59025;DHT22;44806;48.008;13.666;2023-01-05T05:06:11;10.70;99.90
59025;DHT22;44806;48.008;13.666;2023-01-05T05:08:44;10.80;99.90
59025;DHT22;44806;48.008;13.666;2023-01-05T05:11:15;10.80;99.90
59025;DHT22;44806;48.008;13.666;2023-01-05T05:13:49;10.70;99.90
59025;DHT22;44806;48.008;13.666;2023-01-05T05:16:20;10.80;99.90
59025;DHT22;44806;48.008;13.666;2023-01-05T05:18:55;10.80;99.90
59025;DHT22;44806;48.008;13.666;2023-01-05T05:21:27;10.80;99.90
59025;DHT22;44806;48.008;13.666;2023-01-05T05:23:59;10.80;99.90
59025;DHT22;44806;48.008;13.666;2023-01-05T05:26:29;10.80;99.90
59025;DHT22;44806;48.008;13.666;2023-01-05T05:29:00;10.90;99.90
59025;DHT22;44806;48.008;13.666;2023-01-05T05:31:34;10.90;99.90
59025;DHT22;44806;48.008;13.666;2023-01-05T05:34:03;10.90;99.90
59025;DHT22;44806;48.008;13.666;2023-01-05T05:36:40;11.00;99.90
59025;DHT22;44806;48.008;13.666;2023-01-05T05:39:14;11.00;99.90
59025;DHT22;44806;48.008;13.666;2023-01-05T05:41:42;11.00;99.90
59025;DHT22;44806;48.008;13.666;2023-01-05T05:44:19;11.10;99.90
59025;DHT22;44806;48.008;13.666;2023-01-05T05:46:49;11.20;99.90
59025;DHT22;44806;48.008;13.666;2023-01-05T05:49:23;11.20;99.90
59025;DHT22;44806;48.008;13.666;2023-01-05T05:51:56;11.30;99.90
59025;DHT22;44806;48.008;13.666;2023-01-05T05:54:26;11.30;99.90
59025;DHT22;44806;48.008;13.666;2023-01-05T05:56:54;11.40;99.90
59025;DHT22;44806;48.008;13.666;2023-01-05T05:59:29;11.40;99.90
59025;DHT22;44806;48.008;13.666;2023-01-05T06:01:57;11.40;99.90
59025;DHT22;44806;48.008;13.666;2023-01-05T06:04:29;11.40;99.90
59025;DHT22;44806;48.008;13.666;2023-01-05T06:06:57;11.40;99.90
59025;DHT22;44806;48.008;13.666;2023-01-05T06:09:28;11.40;99.90
59025;DHT22;44806;48.008;13.666;2023-01-05T06:12:03;11.40;99.90
59025;DHT22;44806;48.008;13.666;2023-01-05T06:14:40;11.40;99.90
59025;DHT22;44806;48.008;13.666;2023-01-05T06:17:12;11.40;99.90
59025;DHT22;44806;48.008;13.666;2023-01-05T06:19:48;11.40;99.90
59025;DHT22;44806;48.008;13.666;2023-01-05T06:22:19;11.40;99.90
59025;DHT22;44806;48.008;13.666;2023-01-05T06:24:51;11.50;99.90
59025;DHT22;44806;48.008;13.666;2023-01-05T06:27:20;11.50;99.90
59025;DHT22;44806;48.008;13.666;2023-01-05T06:29:53;11.60;99.90
59025;DHT22;44806;48.008;13.666;2023-01-05T06:32:26;11.60;99.90
59025;DHT22;44806;48.008;13.666;2023-01-05T06:35:06;11.60;99.90
59025;DHT22;44806;48.008;13.666;2023-01-05T06:37:36;11.70;99.90
59025;DHT22;44806;48.008;13.666;2023-01-05T06:40:07;11.70;99.90
59025;DHT22;44806;48.008;13.666;2023-01-05T06:42:40;11.70;99.90
59025;DHT22;44806;48.008;13.666;2023-01-05T06:45:13;11.70;99.90
59025;DHT22;44806;48.008;13.666;2023-01-05T06:47:44;11.80;99.90
59025;DHT22;44806;48.008;13.666;2023-01-05T06:50:25;11.80;99.90
59025;DHT22;44806;48.008;13.666;2023-01-05T06:52:59;11.80;99.90
59025;DHT22;44806;48.008;13.666;2023-01-05T06:55:31;11.80;99.90
59025;DHT22;44806;48.008;13.666;2023-01-05T06:58:00;11.80;99.90
59025;DHT22;44806;48.008;13.666;2023-01-05T07:00:33;11.80;99.90
59025;DHT22;44806;48.008;13.666;2023-01-05T07:03:03;11.90;99.90
59025;DHT22;44806;48.008;13.666;2023-01-05T07:05:37;11.90;99.90
59025;DHT22;44806;48.008;13.666;2023-01-05T07:08:09;11.90;99.90
59025;DHT22;44806;48.008;13.666;2023-01-05T07:10:45;11.90;99.90
59025;DHT22;44806;48.008;13.666;2023-01-05T07:13:18;11.90;99.90
59025;DHT22;44806;48.008;13.666;2023-01-05T07:15:52;11.90;99.90
59025;DHT22;44806;48.008;13.666;2023-01-05T07:18:24;11.90;99.90
59025;DHT22;44806;48.008;13.666;2023-01-05T07:20:58;11.90;99.90
59025;DHT22;44806;48.008;13.666;2023-01-05T07:23:33;11.90;99.90
59025;DHT22;44806;48.008;13.666;2023-01-05T07:26:05;12.10;99.90
59025;DHT22;44806;48.008;13.666;2023-01-05T07:28:39;12.00;99.90
59025;DHT22;44806;48.008;13.666;2023-01-05T07:31:07;11.90;99.90
59025;DHT22;44806;48.008;13.666;2023-01-05T07:33:40;11.90;99.90
59025;DHT22;44806;48.008;13.666;2023-01-05T07:36:12;11.90;99.90
59025;DHT22;44806;48.008;13.666;2023-01-05T07:38:46;12.00;99.90
59025;DHT22;44806;48.008;13.666;2023-01-05T07:41:19;12.00;99.90
59025;DHT22;44806;48.008;13.666;2023-01-05T07:43:53;12.00;99.90
59025;DHT22;44806;48.008;13.666;2023-01-05T07:46:28;11.90;99.90
59025;DHT22;44806;48.008;13.666;2023-01-05T07:49:00;11.90;99.90
59025;DHT22;44806;48.008;13.666;2023-01-05T07:51:30;11.90;99.90
59025;DHT22;44806;48.008;13.666;2023-01-05T07:54:00;11.80;99.90
59025;DHT22;44806;48.008;13.666;2023-01-05T07:56:38;11.80;99.90
59025;DHT22;44806;48.008;13.666;2023-01-05T07:59:15;11.70;99.90
59025;DHT22;44806;48.008;13.666;2023-01-05T08:01:48;11.70;99.90
59025;DHT22;44806;48.008;13.666;2023-01-05T08:04:19;11.60;99.90
59025;DHT22;44806;48.008;13.666;2023-01-05T08:06:51;11.60;99.90
59025;DHT22;44806;48.008;13.666;2023-01-05T08:09:30;11.60;99.90
59025;DHT22;44806;48.008;13.666;2023-01-05T08:12:17;11.60;99.90
59025;DHT22;44806;48.008;13.666;2023-01-05T08:14:48;11.50;99.90
59025;DHT22;44806;48.008;13.666;2023-01-05T08:17:21;11.50;99.90
59025;DHT22;44806;48.008;13.666;2023-01-05T08:20:00;11.50;99.90
59025;DHT22;44806;48.008;13.666;2023-01-05T08:22:36;11.60;99.90
59025;DHT22;44806;48.008;13.666;2023-01-05T08:25:08;11.50;99.90
59025;DHT22;44806;48.008;13.666;2023-01-05T08:27:44;11.60;99.90
59025;DHT22;44806;48.008;13.666;2023-01-05T08:30:18;11.70;99.90
59025;DHT22;44806;48.008;13.666;2023-01-05T08:32:49;11.70;99.90
59025;DHT22;44806;48.008;13.666;2023-01-05T08:35:21;11.70;99.90
59025;DHT22;44806;48.008;13.666;2023-01-05T08:37:54;11.80;99.90
59025;DHT22;44806;48.008;13.666;2023-01-05T08:40:26;11.80;99.90
59025;DHT22;44806;48.008;13.666;2023-01-05T08:43:01;11.80;99.90
59025;DHT22;44806;48.008;13.666;2023-01-05T08:45:34;11.90;99.90
59025;DHT22;44806;48.008;13.666;2023-01-05T08:48:08;11.90;99.90
59025;DHT22;44806;48.008;13.666;2023-01-05T08:50:40;11.90;99.90
59025;DHT22;44806;48.008;13.666;2023-01-05T08:53:13;12.00;99.90
59025;DHT22;44806;48.008;13.666;2023-01-05T08:55:44;12.00;99.90
59025;DHT22;44806;48.008;13.666;2023-01-05T08:58:17;12.00;99.90
59025;DHT22;44806;48.008;13.666;2023-01-05T09:00:47;12.00;99.90
59025;DHT22;44806;48.008;13.666;2023-01-05T09:03:18;12.00;99.90
59025;DHT22;44806;48.008;13.666;2023-01-05T09:05:52;12.00;99.90
59025;DHT22;44806;48.008;13.666;2023-01-05T09:08:25;12.00;99.90
59025;DHT22;44806;48.008;13.666;2023-01-05T09:10:53;12.00;99.90
59025;DHT22;44806;48.008;13.666;2023-01-05T09:13:23;12.00;99.90
59025;DHT22;44806;48.008;13.666;2023-01-05T09:15:53;12.00;99.90
59025;DHT22;44806;48.008;13.666;2023-01-05T09:18:29;12.00;99.90
59025;DHT22;44806;48.008;13.666;2023-01-05T09:21:00;12.00;99.90
59025;DHT22;44806;48.008;13.666;2023-01-05T09:23:32;12.10;99.90
59025;DHT22;44806;48.008;13.666;2023-01-05T09:26:12;12.10;99.90
59025;DHT22;44806;48.008;13.666;2023-01-05T09:28:43;12.00;99.90
59025;DHT22;44806;48.008;13.666;2023-01-05T09:31:13;12.00;99.90
59025;DHT22;44806;48.008;13.666;2023-01-05T09:33:50;12.00;99.90
59025;DHT22;44806;48.008;13.666;2023-01-05T09:36:30;12.00;99.90
59025;DHT22;44806;48.008;13.666;2023-01-05T09:39:05;12.00;99.90
59025;DHT22;44806;48.008;13.666;2023-01-05T09:41:40;12.00;99.90
59025;DHT22;44806;48.008;13.666;2023-01-05T09:44:19;12.00;99.90
59025;DHT22;44806;48.008;13.666;2023-01-05T09:46:54;12.00;99.90
59025;DHT22;44806;48.008;13.666;2023-01-05T09:49:26;12.00;99.90
59025;DHT22;44806;48.008;13.666;2023-01-05T09:52:05;11.90;99.90
59025;DHT22;44806;48.008;13.666;2023-01-05T09:54:40;11.80;99.90
59025;DHT22;44806;48.008;13.666;2023-01-05T09:57:16;11.70;99.90
59025;DHT22;44806;48.008;13.666;2023-01-05T09:59:48;11.80;99.90
59025;DHT22;44806;48.008;13.666;2023-01-05T10:02:28;11.70;99.90
59025;DHT22;44806;48.008;13.666;2023-01-05T10:04:59;11.70;99.90
59025;DHT22;44806;48.008;13.666;2023-01-05T10:07:37;11.60;99.90
59025;DHT22;44806;48.008;13.666;2023-01-05T10:10:36;11.50;99.90
59025;DHT22;44806;48.008;13.666;2023-01-05T10:13:50;11.50;99.90
59025;DHT22;44806;48.008;13.666;2023-01-05T10:16:24;11.50;99.90
59025;DHT22;44806;48.008;13.666;2023-01-05T10:18:56;11.50;99.90
59025;DHT22;44806;48.008;13.666;2023-01-05T10:21:35;11.50;99.90
59025;DHT22;44806;48.008;13.666;2023-01-05T10:24:24;11.50;99.90
59025;DHT22;44806;48.008;13.666;2023-01-05T10:27:00;11.60;99.90
59025;DHT22;44806;48.008;13.666;2023-01-05T10:29:45;11.50;99.90
59025;DHT22;44806;48.008;13.666;2023-01-05T10:32:33;11.50;99.90
59025;DHT22;44806;48.008;13.666;2023-01-05T10:35:28;11.50;99.90
59025;DHT22;44806;48.008;13.666;2023-01-05T10:38:08;11.40;99.90
59025;DHT22;44806;48.008;13.666;2023-01-05T10:40:53;11.20;99.90
59025;DHT22;44806;48.008;13.666;2023-01-05T10:43:45;11.20;99.90
59025;DHT22;44806;48.008;13.666;2023-01-05T10:46:24;11.10;99.90
59025;DHT22;44806;48.008;13.666;2023-01-05T10:48:59;11.10;99.90
59025;DHT22;44806;48.008;13.666;2023-01-05T10:51:31;11.10;99.90
59025;DHT22;44806;48.008;13.666;2023-01-05T10:54:05;11.00;99.90
59025;DHT22;44806;48.008;13.666;2023-01-05T10:56:38;11.10;99.90
59025;DHT22;44806;48.008;13.666;2023-01-05T10:59:11;11.10;99.90
59025;DHT22;44806;48.008;13.666;2023-01-05T11:01:43;11.00;99.90
59025;DHT22;44806;48.008;13.666;2023-01-05T11:04:32;10.90;99.90
59025;DHT22;44806;48.008;13.666;2023-01-05T11:07:06;10.80;99.90
59025;DHT22;44806;48.008;13.666;2023-01-05T11:09:53;10.70;99.90
59025;DHT22;44806;48.008;13.666;2023-01-05T11:12:23;10.70;99.90
59025;DHT22;44806;48.008;13.666;2023-01-05T11:15:01;10.70;99.90
59025;DHT22;44806;48.008;13.666;2023-01-05T11:17:37;10.70;99.90
59025;DHT22;44806;48.008;13.666;2023-01-05T11:20:17;10.80;99.90
59025;DHT22;44806;48.008;13.666;2023-01-05T11:22:51;10.80;99.90
59025;DHT22;44806;48.008;13.666;2023-01-05T11:25:27;10.80;99.90
59025;DHT22;44806;48.008;13.666;2023-01-05T11:28:16;10.80;99.90
59025;DHT22;44806;48.008;13.666;2023-01-05T11:31:00;10.80;99.90
59025;DHT22;44806;48.008;13.666;2023-01-05T11:33:34;10.60;99.90
59025;DHT22;44806;48.008;13.666;2023-01-05T11:36:08;10.30;99.90
59025;DHT22;44806;48.008;13.666;2023-01-05T11:38:44;10.10;99.90
59025;DHT22;44806;48.008;13.666;2023-01-05T11:41:24;10.10;99.90
59025;DHT22;44806;48.008;13.666;2023-01-05T11:44:11;10.10;99.90
59025;DHT22;44806;48.008;13.666;2023-01-05T11:46:46;10.00;99.90
59025;DHT22;44806;48.008;13.666;2023-01-05T11:49:19;10.00;99.90
59025;DHT22;44806;48.008;13.666;2023-01-05T11:51:50;10.00;99.90
59025;DHT22;44806;48.008;13.666;2023-01-05T11:54:31;9.90;99.90
59025;DHT22;44806;48.008;13.666;2023-01-05T11:57:14;9.90;99.90
59025;DHT22;44806;48.008;13.666;2023-01-05T11:59:44;9.80;99.90
59025;DHT22;44806;48.008;13.666;2023-01-05T12:02:34;9.80;99.90
59025;DHT22;44806;48.008;13.666;2023-01-05T12:05:24;9.70;99.90
59025;DHT22;44806;48.008;13.666;2023-01-05T12:08:13;9.60;99.90
59025;DHT22;44806;48.008;13.666;2023-01-05T12:11:04;9.60;99.90
59025;DHT22;44806;48.008;13.666;2023-01-05T12:14:03;9.70;99.90
59025;DHT22;44806;48.008;13.666;2023-01-05T12:16:48;9.70;99.90
59025;DHT22;44806;48.008;13.666;2023-01-05T12:22:48;9.60;99.90
59025;DHT22;44806;48.008;13.666;2023-01-05T12:25:40;9.60;99.90
59025;DHT22;44806;48.008;13.666;2023-01-05T12:31:18;9.60;99.90
59025;DHT22;44806;48.008;13.666;2023-01-05T12:34:11;9.60;99.90
59025;DHT22;44806;48.008;13.666;2023-01-05T12:37:02;9.70;99.90
59025;DHT22;44806;48.008;13.666;2023-01-05T12:40:01;9.80;99.90
59025;DHT22;44806;48.008;13.666;2023-01-05T12:43:10;9.80;99.90
59025;DHT22;44806;48.008;13.666;2023-01-05T12:46:10;9.90;99.90
59025;DHT22;44806;48.008;13.666;2023-01-05T12:48:48;9.80;99.90
59025;DHT22;44806;48.008;13.666;2023-01-05T12:51:25;9.90;99.90
59025;DHT22;44806;48.008;13.666;2023-01-05T12:54:03;9.90;99.90
59025;DHT22;44806;48.008;13.666;2023-01-05T12:56:47;9.90;99.90
59025;DHT22;44806;48.008;13.666;2023-01-05T12:59:31;9.90;99.90
59025;DHT22;44806;48.008;13.666;2023-01-05T13:02:20;9.90;99.90
59025;DHT22;44806;48.008;13.666;2023-01-05T13:05:02;10.00;99.90
59025;DHT22;44806;48.008;13.666;2023-01-05T13:07:47;10.00;99.90
59025;DHT22;44806;48.008;13.666;2023-01-05T13:10:29;10.10;99.90
59025;DHT22;44806;48.008;13.666;2023-01-05T13:13:09;10.10;99.90
59025;DHT22;44806;48.008;13.666;2023-01-05T13:15:48;10.00;99.90
59025;DHT22;44806;48.008;13.666;2023-01-05T13:18:23;10.10;99.90
59025;DHT22;44806;48.008;13.666;2023-01-05T13:21:04;10.10;99.90
59025;DHT22;44806;48.008;13.666;2023-01-05T13:23:51;10.00;99.90
59025;DHT22;44806;48.008;13.666;2023-01-05T13:26:23;10.10;99.90
59025;DHT22;44806;48.008;13.666;2023-01-05T13:28:53;9.90;99.90
59025;DHT22;44806;48.008;13.666;2023-01-05T13:31:57;9.90;99.90
59025;DHT22;44806;48.008;13.666;2023-01-05T13:34:51;10.00;99.90
59025;DHT22;44806;48.008;13.666;2023-01-05T13:38:00;9.90;99.90
59025;DHT22;44806;48.008;13.666;2023-01-05T13:46:52;10.00;99.90
59025;DHT22;44806;48.008;13.666;2023-01-05T13:52:31;10.00;99.90
59025;DHT22;44806;48.008;13.666;2023-01-05T13:55:14;10.00;99.90
59025;DHT22;44806;48.008;13.666;2023-01-05T13:57:54;9.90;99.90
59025;DHT22;44806;48.008;13.666;2023-01-05T14:00:30;9.80;99.90
59025;DHT22;44806;48.008;13.666;2023-01-05T14:03:05;9.90;99.90
59025;DHT22;44806;48.008;13.666;2023-01-05T14:05:49;9.80;99.90
59025;DHT22;44806;48.008;13.666;2023-01-05T14:08:24;9.80;99.90
59025;DHT22;44806;48.008;13.666;2023-01-05T14:11:18;9.90;99.90
59025;DHT22;44806;48.008;13.666;2023-01-05T14:13:52;10.00;99.90
59025;DHT22;44806;48.008;13.666;2023-01-05T14:16:57;9.90;99.90
59025;DHT22;44806;48.008;13.666;2023-01-05T14:19:50;9.90;99.90
59025;DHT22;44806;48.008;13.666;2023-01-05T14:22:36;9.90;99.90
59025;DHT22;44806;48.008;13.666;2023-01-05T14:28:22;9.80;99.90
59025;DHT22;44806;48.008;13.666;2023-01-05T14:34:16;10.00;99.90
59025;DHT22;44806;48.008;13.666;2023-01-05T14:37:01;10.00;99.90
59025;DHT22;44806;48.008;13.666;2023-01-05T14:39:42;9.90;99.90
59025;DHT22;44806;48.008;13.666;2023-01-05T14:42:31;9.90;99.90
59025;DHT22;44806;48.008;13.666;2023-01-05T14:45:08;9.90;99.90
59025;DHT22;44806;48.008;13.666;2023-01-05T14:47:57;9.90;99.90
59025;DHT22;44806;48.008;13.666;2023-01-05T14:50:35;9.80;99.90
59025;DHT22;44806;48.008;13.666;2023-01-05T14:53:37;9.80;99.90
59025;DHT22;44806;48.008;13.666;2023-01-05T14:56:21;9.80;99.90
59025;DHT22;44806;48.008;13.666;2023-01-05T14:59:13;9.90;99.90
59025;DHT22;44806;48.008;13.666;2023-01-05T15:01:53;9.90;99.90
59025;DHT22;44806;48.008;13.666;2023-01-05T15:04:26;9.90;99.90
59025;DHT22;44806;48.008;13.666;2023-01-05T15:07:22;9.90;99.90
59025;DHT22;44806;48.008;13.666;2023-01-05T15:10:15;9.80;99.90
59025;DHT22;44806;48.008;13.666;2023-01-05T15:13:30;9.90;99.90
59025;DHT22;44806;48.008;13.666;2023-01-05T15:16:14;9.90;99.90
59025;DHT22;44806;48.008;13.666;2023-01-05T15:19:16;9.90;99.90
59025;DHT22;44806;48.008;13.666;2023-01-05T15:22:12;9.80;99.90
59025;DHT22;44806;48.008;13.666;2023-01-05T15:25:19;9.80;99.90
59025;DHT22;44806;48.008;13.666;2023-01-05T15:28:10;9.90;99.90
59025;DHT22;44806;48.008;13.666;2023-01-05T15:34:11;9.90;99.90
59025;DHT22;44806;48.008;13.666;2023-01-05T15:36:48;9.90;99.90
59025;DHT22;44806;48.008;13.666;2023-01-05T15:39:29;9.80;99.90
59025;DHT22;44806;48.008;13.666;2023-01-05T15:42:07;9.90;99.90
59025;DHT22;44806;48.008;13.666;2023-01-05T15:44:48;9.90;99.90
59025;DHT22;44806;48.008;13.666;2023-01-05T15:47:24;9.90;99.90
59025;DHT22;44806;48.008;13.666;2023-01-05T15:50:01;9.90;99.90
59025;DHT22;44806;48.008;13.666;2023-01-05T15:52:33;9.90;99.90
59025;DHT22;44806;48.008;13.666;2023-01-05T15:55:12;9.90;99.90
59025;DHT22;44806;48.008;13.666;2023-01-05T15:57:52;9.90;99.90
59025;DHT22;44806;48.008;13.666;2023-01-05T16:00:22;10.00;99.90
59025;DHT22;44806;48.008;13.666;2023-01-05T16:02:58;9.90;99.90
59025;DHT22;44806;48.008;13.666;2023-01-05T16:05:32;9.90;99.90
59025;DHT22;44806;48.008;13.666;2023-01-05T16:08:03;9.90;99.90
59025;DHT22;44806;48.008;13.666;2023-01-05T16:10:36;9.90;99.90
59025;DHT22;44806;48.008;13.666;2023-01-05T16:13:13;9.90;99.90
59025;DHT22;44806;48.008;13.666;2023-01-05T16:15:48;9.90;99.90
59025;DHT22;44806;48.008;13.666;2023-01-05T16:18:33;9.90;99.90
59025;DHT22;44806;48.008;13.666;2023-01-05T16:21:15;9.90;99.90
59025;DHT22;44806;48.008;13.666;2023-01-05T16:23:51;9.90;99.90
59025;DHT22;44806;48.008;13.666;2023-01-05T16:26:26;9.90;99.90
59025;DHT22;44806;48.008;13.666;2023-01-05T16:29:00;9.80;99.90
59025;DHT22;44806;48.008;13.666;2023-01-05T16:31:32;9.80;99.90
59025;DHT22;44806;48.008;13.666;2023-01-05T16:34:03;9.70;99.90
59025;DHT22;44806;48.008;13.666;2023-01-05T16:36:37;9.70;99.90
59025;DHT22;44806;48.008;13.666;2023-01-05T16:39:23;9.70;99.90
59025;DHT22;44806;48.008;13.666;2023-01-05T16:42:13;9.60;99.90
59025;DHT22;44806;48.008;13.666;2023-01-05T16:45:01;9.60;99.90
59025;DHT22;44806;48.008;13.666;2023-01-05T16:47:39;9.60;99.90
59025;DHT22;44806;48.008;13.666;2023-01-05T16:53:22;9.60;99.90
59025;DHT22;44806;48.008;13.666;2023-01-05T16:55:55;9.60;99.90